sensor_id;sensor_type;location;lat;lon;timestamp;pressure;altitude;pressure_sealevel;temperature;humidity
55990;BME280;41875;55.806;38.082;2023-05-19T00:00:34;99940.88;;;16.68;69.78
55990;BME280;41875;55.806;38.082;2023-05-19T00:03:04;99948.03;;;16.83;69.42
55990;BME280;41875;55.806;38.082;2023-05-19T00:05:36;99948.84;;;16.83;69.39
55990;BME280;41875;55.806;38.082;2023-05-19T00:08:08;99947.31;;;16.74;69.77
55990;BME280;41875;55.806;38.082;2023-05-19T00:10:38;99951.78;;;16.88;69.28
55990;BME280;41875;55.806;38.082;2023-05-19T00:13:07;99957.31;;;17.02;68.40
55990;BME280;41875;55.806;38.082;2023-05-19T00:15:38;99959.47;;;16.76;69.29
55990;BME280;41875;55.806;38.082;2023-05-19T00:18:07;99955.28;;;16.67;69.67
55990;BME280;41875;55.806;38.082;2023-05-19T00:20:36;99957.16;;;16.73;68.93
55990;BME280;41875;55.806;38.082;2023-05-19T00:23:05;99963.06;;;16.84;68.68
55990;BME280;41875;55.806;38.082;2023-05-19T00:25:33;99974.13;;;16.96;68.02
55990;BME280;41875;55.806;38.082;2023-05-19T00:28:02;99970.03;;;16.63;68.95
55990;BME280;41875;55.806;38.082;2023-05-19T00:30:30;99970.69;;;16.65;68.90
55990;BME280;41875;55.806;38.082;2023-05-19T00:33:01;99982.78;;;16.46;69.39
55990;BME280;41875;55.806;38.082;2023-05-19T00:35:29;99972.47;;;16.13;70.28
55990;BME280;41875;55.806;38.082;2023-05-19T00:37:58;100002.13;;;15.88;71.75
55990;BME280;41875;55.806;38.082;2023-05-19T00:40:28;99991.59;;;15.87;71.55
55990;BME280;41875;55.806;38.082;2023-05-19T00:42:58;99964.63;;;15.58;72.73
55990;BME280;41875;55.806;38.082;2023-05-19T00:45:28;99993.09;;;15.66;72.54
55990;BME280;41875;55.806;38.082;2023-05-19T00:47:57;99995.75;;;15.66;72.70
55990;BME280;41875;55.806;38.082;2023-05-19T00:50:27;99992.38;;;15.34;73.87
55990;BME280;41875;55.806;38.082;2023-05-19T00:52:57;99994.41;;;15.00;75.75
55990;BME280;41875;55.806;38.082;2023-05-19T00:55:28;100004.94;;;15.02;75.48
55990;BME280;41875;55.806;38.082;2023-05-19T00:57:58;99992.47;;;14.94;75.93
55990;BME280;41875;55.806;38.082;2023-05-19T01:00:29;99997.31;;;15.14;74.39
55990;BME280;41875;55.806;38.082;2023-05-19T01:03:00;100004.72;;;15.35;73.50
55990;BME280;41875;55.806;38.082;2023-05-19T01:05:30;99997.63;;;15.19;74.38
55990;BME280;41875;55.806;38.082;2023-05-19T01:08:02;99998.09;;;15.46;72.97
55990;BME280;41875;55.806;38.082;2023-05-19T01:10:31;99991.19;;;15.36;72.78
55990;BME280;41875;55.806;38.082;2023-05-19T01:13:00;99994.66;;;15.14;73.93
55990;BME280;41875;55.806;38.082;2023-05-19T01:15:34;100001.38;;;15.09;73.92
55990;BME280;41875;55.806;38.082;2023-05-19T01:18:11;100000.44;;;14.71;75.78
55990;BME280;41875;55.806;38.082;2023-05-19T01:20:50;100012.53;;;15.13;73.92
55990;BME280;41875;55.806;38.082;2023-05-19T01:23:32;100006.41;;;15.04;73.96
55990;BME280;41875;55.806;38.082;2023-05-19T01:26:16;100013.88;;;14.77;75.12
55990;BME280;41875;55.806;38.082;2023-05-19T01:29:19;100003.63;;;15.21;73.33
55990;BME280;41875;55.806;38.082;2023-05-19T01:31:57;100017.31;;;15.18;72.87
55990;BME280;41875;55.806;38.082;2023-05-19T01:34:28;100017.72;;;15.06;72.88
55990;BME280;41875;55.806;38.082;2023-05-19T01:36:59;100007.72;;;14.77;74.22
55990;BME280;41875;55.806;38.082;2023-05-19T01:39:28;100007.72;;;15.08;72.85
55990;BME280;41875;55.806;38.082;2023-05-19T01:41:58;100012.91;;;14.70;74.21
55990;BME280;41875;55.806;38.082;2023-05-19T01:44:28;100019.91;;;14.71;74.19
55990;BME280;41875;55.806;38.082;2023-05-19T01:47:00;100020.38;;;14.83;73.47
55990;BME280;41875;55.806;38.082;2023-05-19T01:49:29;100020.50;;;14.90;73.03
55990;BME280;41875;55.806;38.082;2023-05-19T01:51:58;100034.91;;;14.64;74.43
55990;BME280;41875;55.806;38.082;2023-05-19T01:54:26;100013.81;;;14.46;75.10
55990;BME280;41875;55.806;38.082;2023-05-19T01:57:02;100022.72;;;14.22;75.85
55990;BME280;41875;55.806;38.082;2023-05-19T01:59:46;100030.88;;;14.28;75.53
55990;BME280;41875;55.806;38.082;2023-05-19T02:02:31;100037.16;;;14.44;74.50
55990;BME280;41875;55.806;38.082;2023-05-19T02:05:08;100038.59;;;13.98;75.76
55990;BME280;41875;55.806;38.082;2023-05-19T02:07:43;100040.25;;;13.83;75.90
55990;BME280;41875;55.806;38.082;2023-05-19T02:10:15;100031.44;;;13.74;76.49
55990;BME280;41875;55.806;38.082;2023-05-19T02:12:49;100038.59;;;13.90;74.75
55990;BME280;41875;55.806;38.082;2023-05-19T02:15:21;100033.75;;;14.02;74.61
55990;BME280;41875;55.806;38.082;2023-05-19T02:17:54;100066.22;;;13.72;74.33
55990;BME280;41875;55.806;38.082;2023-05-19T02:20:43;100043.69;;;13.34;74.52
55990;BME280;41875;55.806;38.082;2023-05-19T02:23:11;100035.94;;;13.49;74.19
55990;BME280;41875;55.806;38.082;2023-05-19T02:25:40;100037.38;;;13.35;74.44
55990;BME280;41875;55.806;38.082;2023-05-19T02:28:08;100054.84;;;13.37;74.19
55990;BME280;41875;55.806;38.082;2023-05-19T02:30:37;100050.44;;;13.11;74.60
55990;BME280;41875;55.806;38.082;2023-05-19T02:33:10;100066.09;;;13.15;74.83
55990;BME280;41875;55.806;38.082;2023-05-19T02:35:38;100049.56;;;12.52;74.14
55990;BME280;41875;55.806;38.082;2023-05-19T02:38:07;100078.44;;;12.81;73.26
55990;BME280;41875;55.806;38.082;2023-05-19T02:40:36;100070.72;;;12.35;73.88
55990;BME280;41875;55.806;38.082;2023-05-19T02:43:10;100068.03;;;11.82;75.38
55990;BME280;41875;55.806;38.082;2023-05-19T02:45:39;100075.06;;;12.10;74.63
55990;BME280;41875;55.806;38.082;2023-05-19T02:48:09;100069.91;;;12.08;74.56
55990;BME280;41875;55.806;38.082;2023-05-19T02:50:40;100077.94;;;11.80;75.25
55990;BME280;41875;55.806;38.082;2023-05-19T02:53:09;100079.16;;;11.50;76.44
55990;BME280;41875;55.806;38.082;2023-05-19T02:55:38;100080.59;;;11.80;75.08
55990;BME280;41875;55.806;38.082;2023-05-19T02:58:06;100085.53;;;11.93;74.42
55990;BME280;41875;55.806;38.082;2023-05-19T03:00:35;100079.63;;;11.81;74.40
55990;BME280;41875;55.806;38.082;2023-05-19T03:03:04;100091.69;;;11.76;74.54
55990;BME280;41875;55.806;38.082;2023-05-19T03:05:34;100089.41;;;11.63;74.67
55990;BME280;41875;55.806;38.082;2023-05-19T03:08:03;100089.56;;;11.79;73.59
55990;BME280;41875;55.806;38.082;2023-05-19T03:10:32;100071.75;;;11.71;74.03
55990;BME280;41875;55.806;38.082;2023-05-19T03:13:01;100087.28;;;11.66;74.16
55990;BME280;41875;55.806;38.082;2023-05-19T03:15:29;100077.75;;;11.55;74.07
55990;BME280;41875;55.806;38.082;2023-05-19T03:17:58;100093.28;;;11.68;73.00
55990;BME280;41875;55.806;38.082;2023-05-19T03:20:27;100086.59;;;11.46;73.86
55990;BME280;41875;55.806;38.082;2023-05-19T03:22:58;100086.47;;;11.48;73.14
55990;BME280;41875;55.806;38.082;2023-05-19T03:25:27;100097.06;;;11.66;73.36
55990;BME280;41875;55.806;38.082;2023-05-19T03:27:56;100091.75;;;11.66;74.08
55990;BME280;41875;55.806;38.082;2023-05-19T03:30:24;100094.13;;;11.69;73.15
55990;BME280;41875;55.806;38.082;2023-05-19T03:33:16;100099.19;;;11.80;72.63
55990;BME280;41875;55.806;38.082;2023-05-19T03:35:45;100101.63;;;11.73;72.27
55990;BME280;41875;55.806;38.082;2023-05-19T03:38:16;100105.25;;;11.54;72.68
55990;BME280;41875;55.806;38.082;2023-05-19T03:40:53;100113.41;;;11.43;72.88
55990;BME280;41875;55.806;38.082;2023-05-19T03:43:22;100116.63;;;11.65;72.87
55990;BME280;41875;55.806;38.082;2023-05-19T03:46:01;100104.03;;;11.67;71.86
55990;BME280;41875;55.806;38.082;2023-05-19T03:49:00;100119.38;;;11.91;71.29
55990;BME280;41875;55.806;38.082;2023-05-19T03:52:00;100122.31;;;12.24;70.39
55990;BME280;41875;55.806;38.082;2023-05-19T03:54:36;100117.91;;;12.15;70.28
55990;BME280;41875;55.806;38.082;2023-05-19T03:57:06;100118.59;;;11.81;71.53
55990;BME280;41875;55.806;38.082;2023-05-19T03:59:34;100118.84;;;12.06;70.70
55990;BME280;41875;55.806;38.082;2023-05-19T04:02:03;100121.38;;;12.33;69.64
55990;BME280;41875;55.806;38.082;2023-05-19T04:04:34;100122.53;;;12.31;69.91
55990;BME280;41875;55.806;38.082;2023-05-19T04:07:07;100119.97;;;12.47;68.44
55990;BME280;41875;55.806;38.082;2023-05-19T04:09:37;100141.50;;;12.18;70.09
55990;BME280;41875;55.806;38.082;2023-05-19T04:12:06;100126.06;;;12.40;69.10
55990;BME280;41875;55.806;38.082;2023-05-19T04:14:35;100135.03;;;12.39;69.15
55990;BME280;41875;55.806;38.082;2023-05-19T04:17:04;100133.13;;;12.57;69.28
55990;BME280;41875;55.806;38.082;2023-05-19T04:19:32;100141.63;;;12.34;70.53
55990;BME280;41875;55.806;38.082;2023-05-19T04:22:01;100139.53;;;12.20;70.69
55990;BME280;41875;55.806;38.082;2023-05-19T04:24:31;100132.94;;;11.88;71.93
55990;BME280;41875;55.806;38.082;2023-05-19T04:27:01;100140.91;;;11.70;72.40
55990;BME280;41875;55.806;38.082;2023-05-19T04:29:33;100131.50;;;11.94;72.24
55990;BME280;41875;55.806;38.082;2023-05-19T04:32:02;100136.78;;;11.94;72.44
55990;BME280;41875;55.806;38.082;2023-05-19T04:34:34;100140.72;;;11.89;73.05
55990;BME280;41875;55.806;38.082;2023-05-19T04:37:07;100136.41;;;11.88;72.49
55990;BME280;41875;55.806;38.082;2023-05-19T04:39:38;100132.47;;;11.93;72.54
55990;BME280;41875;55.806;38.082;2023-05-19T04:42:14;100143.44;;;12.08;72.55
55990;BME280;41875;55.806;38.082;2023-05-19T04:44:47;100141.25;;;11.57;73.73
55990;BME280;41875;55.806;38.082;2023-05-19T04:47:19;100138.69;;;11.65;74.17
55990;BME280;41875;55.806;38.082;2023-05-19T04:49:48;100147.03;;;11.52;74.87
55990;BME280;41875;55.806;38.082;2023-05-19T04:52:21;100141.19;;;11.67;73.98
55990;BME280;41875;55.806;38.082;2023-05-19T04:54:50;100149.69;;;11.70;74.69
55990;BME280;41875;55.806;38.082;2023-05-19T04:57:20;100123.06;;;11.80;73.91
55990;BME280;41875;55.806;38.082;2023-05-19T04:59:49;100133.31;;;11.93;74.11
55990;BME280;41875;55.806;38.082;2023-05-19T05:02:19;100146.91;;;12.08;73.38
55990;BME280;41875;55.806;38.082;2023-05-19T05:04:48;100129.69;;;11.94;74.08
55990;BME280;41875;55.806;38.082;2023-05-19T05:07:16;100151.50;;;11.88;74.47
55990;BME280;41875;55.806;38.082;2023-05-19T05:09:45;100146.13;;;11.98;74.29
55990;BME280;41875;55.806;38.082;2023-05-19T05:12:15;100159.91;;;11.65;74.94
55990;BME280;41875;55.806;38.082;2023-05-19T05:14:48;100154.94;;;11.62;75.17
55990;BME280;41875;55.806;38.082;2023-05-19T05:17:19;100163.13;;;11.87;74.67
55990;BME280;41875;55.806;38.082;2023-05-19T05:19:48;100165.19;;;12.11;73.98
55990;BME280;41875;55.806;38.082;2023-05-19T05:22:17;100159.03;;;12.11;74.23
55990;BME280;41875;55.806;38.082;2023-05-19T05:24:48;100155.88;;;12.52;72.94
55990;BME280;41875;55.806;38.082;2023-05-19T05:27:17;100150.00;;;12.22;73.72
55990;BME280;41875;55.806;38.082;2023-05-19T05:29:47;100165.59;;;12.16;74.17
55990;BME280;41875;55.806;38.082;2023-05-19T05:32:19;100169.56;;;12.39;73.42
55990;BME280;41875;55.806;38.082;2023-05-19T05:34:48;100168.53;;;12.58;72.97
55990;BME280;41875;55.806;38.082;2023-05-19T05:37:19;100171.97;;;12.50;73.44
55990;BME280;41875;55.806;38.082;2023-05-19T05:39:48;100179.38;;;12.64;73.50
55990;BME280;41875;55.806;38.082;2023-05-19T05:42:16;100169.56;;;12.20;74.24
55990;BME280;41875;55.806;38.082;2023-05-19T05:44:48;100182.91;;;12.47;73.95
55990;BME280;41875;55.806;38.082;2023-05-19T05:47:17;100181.56;;;12.69;73.84
55990;BME280;41875;55.806;38.082;2023-05-19T05:49:47;100194.22;;;12.49;73.88
55990;BME280;41875;55.806;38.082;2023-05-19T05:52:20;100184.84;;;12.63;74.15
55990;BME280;41875;55.806;38.082;2023-05-19T05:54:51;100180.97;;;12.31;74.42
55990;BME280;41875;55.806;38.082;2023-05-19T05:57:20;100176.13;;;12.53;73.74
55990;BME280;41875;55.806;38.082;2023-05-19T05:59:51;100179.41;;;12.02;75.13
55990;BME280;41875;55.806;38.082;2023-05-19T06:02:19;100180.53;;;12.17;75.26
55990;BME280;41875;55.806;38.082;2023-05-19T06:07:41;100189.94;;;12.30;74.83
55990;BME280;41875;55.806;38.082;2023-05-19T06:10:13;100194.13;;;12.59;74.26
55990;BME280;41875;55.806;38.082;2023-05-19T06:12:43;100198.38;;;12.70;73.73
55990;BME280;41875;55.806;38.082;2023-05-19T06:15:13;100199.44;;;12.59;74.20
55990;BME280;41875;55.806;38.082;2023-05-19T06:18:01;100191.47;;;12.59;74.05
55990;BME280;41875;55.806;38.082;2023-05-19T06:20:30;100196.13;;;12.83;73.68
55990;BME280;41875;55.806;38.082;2023-05-19T06:22:59;100195.63;;;12.88;73.44
55990;BME280;41875;55.806;38.082;2023-05-19T06:25:28;100199.47;;;13.20;72.53
55990;BME280;41875;55.806;38.082;2023-05-19T06:27:58;100185.31;;;13.19;71.79
55990;BME280;41875;55.806;38.082;2023-05-19T06:30:28;100203.78;;;13.55;71.20
55990;BME280;41875;55.806;38.082;2023-05-19T06:33:11;100205.94;;;13.52;71.00
55990;BME280;41875;55.806;38.082;2023-05-19T06:35:40;100197.69;;;13.37;71.25
55990;BME280;41875;55.806;38.082;2023-05-19T06:38:08;100195.94;;;13.54;71.10
55990;BME280;41875;55.806;38.082;2023-05-19T06:40:37;100208.06;;;13.40;73.29
55990;BME280;41875;55.806;38.082;2023-05-19T06:43:06;100204.47;;;13.23;73.01
55990;BME280;41875;55.806;38.082;2023-05-19T06:45:56;100189.91;;;13.01;72.87
55990;BME280;41875;55.806;38.082;2023-05-19T06:48:25;100214.84;;;13.08;73.37
55990;BME280;41875;55.806;38.082;2023-05-19T06:50:54;100211.31;;;12.99;73.33
55990;BME280;41875;55.806;38.082;2023-05-19T06:53:24;100207.00;;;12.98;73.54
55990;BME280;41875;55.806;38.082;2023-05-19T06:55:54;100208.31;;;13.29;72.68
55990;BME280;41875;55.806;38.082;2023-05-19T06:58:33;100211.91;;;13.11;72.50
55990;BME280;41875;55.806;38.082;2023-05-19T07:01:05;100219.97;;;13.01;73.27
55990;BME280;41875;55.806;38.082;2023-05-19T07:03:41;100216.75;;;12.89;73.61
55990;BME280;41875;55.806;38.082;2023-05-19T07:06:11;100225.19;;;12.85;74.35
55990;BME280;41875;55.806;38.082;2023-05-19T07:08:40;100217.63;;;12.45;73.81
55990;BME280;41875;55.806;38.082;2023-05-19T07:11:11;100223.69;;;12.82;73.58
55990;BME280;41875;55.806;38.082;2023-05-19T07:13:41;100222.06;;;13.16;73.28
55990;BME280;41875;55.806;38.082;2023-05-19T07:16:12;100225.69;;;14.00;69.75
55990;BME280;41875;55.806;38.082;2023-05-19T07:18:41;100219.53;;;15.47;64.31
55990;BME280;41875;55.806;38.082;2023-05-19T07:21:10;100214.03;;;15.80;62.63
55990;BME280;41875;55.806;38.082;2023-05-19T07:23:39;100214.56;;;16.07;62.20
55990;BME280;41875;55.806;38.082;2023-05-19T07:26:07;100204.69;;;16.08;62.16
55990;BME280;41875;55.806;38.082;2023-05-19T07:28:36;100220.94;;;15.27;64.79
55990;BME280;41875;55.806;38.082;2023-05-19T07:31:08;100226.53;;;15.00;65.17
55990;BME280;41875;55.806;38.082;2023-05-19T07:33:39;100226.66;;;15.15;64.42
55990;BME280;41875;55.806;38.082;2023-05-19T07:36:07;100232.19;;;15.05;64.54
55990;BME280;41875;55.806;38.082;2023-05-19T07:38:36;100224.84;;;15.07;64.17
55990;BME280;41875;55.806;38.082;2023-05-19T07:41:05;100219.59;;;16.02;61.64
55990;BME280;41875;55.806;38.082;2023-05-19T07:43:33;100216.63;;;15.97;61.65
55990;BME280;41875;55.806;38.082;2023-05-19T07:46:02;100234.16;;;16.46;59.80
55990;BME280;41875;55.806;38.082;2023-05-19T07:48:30;100225.69;;;17.11;58.91
55990;BME280;41875;55.806;38.082;2023-05-19T07:51:00;100230.59;;;17.22;57.24
55990;BME280;41875;55.806;38.082;2023-05-19T07:53:29;100229.56;;;17.38;56.55
55990;BME280;41875;55.806;38.082;2023-05-19T07:55:58;100219.63;;;17.68;56.17
55990;BME280;41875;55.806;38.082;2023-05-19T07:58:26;100230.31;;;17.02;57.92
55990;BME280;41875;55.806;38.082;2023-05-19T08:00:56;100228.31;;;15.96;59.58
55990;BME280;41875;55.806;38.082;2023-05-19T08:03:25;100229.16;;;15.96;60.11
55990;BME280;41875;55.806;38.082;2023-05-19T08:05:54;100224.41;;;17.21;54.98
55990;BME280;41875;55.806;38.082;2023-05-19T08:08:26;100218.69;;;17.10;56.40
55990;BME280;41875;55.806;38.082;2023-05-19T08:10:55;100230.72;;;16.37;58.17
55990;BME280;41875;55.806;38.082;2023-05-19T08:13:24;100219.66;;;16.40;58.74
55990;BME280;41875;55.806;38.082;2023-05-19T08:15:53;100223.59;;;16.29;62.10
55990;BME280;41875;55.806;38.082;2023-05-19T08:18:26;100222.63;;;16.22;58.12
55990;BME280;41875;55.806;38.082;2023-05-19T08:20:54;100222.16;;;15.55;59.55
55990;BME280;41875;55.806;38.082;2023-05-19T08:23:23;100225.19;;;15.84;59.08
55990;BME280;41875;55.806;38.082;2023-05-19T08:25:53;100226.84;;;16.17;57.66
55990;BME280;41875;55.806;38.082;2023-05-19T08:28:21;100232.91;;;16.10;57.81
55990;BME280;41875;55.806;38.082;2023-05-19T08:30:53;100243.47;;;16.04;59.08
55990;BME280;41875;55.806;38.082;2023-05-19T08:33:32;100222.25;;;16.02;57.75
55990;BME280;41875;55.806;38.082;2023-05-19T08:36:00;100237.47;;;16.48;56.38
55990;BME280;41875;55.806;38.082;2023-05-19T08:38:48;100242.66;;;16.26;55.11
55990;BME280;41875;55.806;38.082;2023-05-19T08:41:23;100233.16;;;16.62;55.65
55990;BME280;41875;55.806;38.082;2023-05-19T08:43:55;100225.03;;;17.09;53.24
55990;BME280;41875;55.806;38.082;2023-05-19T08:46:28;100232.44;;;17.21;53.52
55990;BME280;41875;55.806;38.082;2023-05-19T08:49:06;100232.38;;;16.38;56.73
55990;BME280;41875;55.806;38.082;2023-05-19T08:51:43;100251.53;;;15.95;57.26
55990;BME280;41875;55.806;38.082;2023-05-19T08:54:19;100220.75;;;16.84;53.97
55990;BME280;41875;55.806;38.082;2023-05-19T08:56:53;100227.03;;;16.91;52.78
55990;BME280;41875;55.806;38.082;2023-05-19T08:59:28;100229.34;;;16.18;54.93
55990;BME280;41875;55.806;38.082;2023-05-19T09:02:02;100228.56;;;16.71;53.91
55990;BME280;41875;55.806;38.082;2023-05-19T09:04:45;100225.63;;;16.42;53.15
55990;BME280;41875;55.806;38.082;2023-05-19T09:07:14;100223.34;;;16.39;51.52
55990;BME280;41875;55.806;38.082;2023-05-19T09:09:44;100218.16;;;16.76;51.56
55990;BME280;41875;55.806;38.082;2023-05-19T09:12:17;100224.72;;;16.50;50.48
55990;BME280;41875;55.806;38.082;2023-05-19T09:14:45;100222.25;;;16.49;52.71
55990;BME280;41875;55.806;38.082;2023-05-19T09:17:14;100222.88;;;16.89;49.59
55990;BME280;41875;55.806;38.082;2023-05-19T09:19:45;100212.53;;;16.71;48.57
55990;BME280;41875;55.806;38.082;2023-05-19T09:22:15;100210.09;;;16.99;47.21
55990;BME280;41875;55.806;38.082;2023-05-19T09:24:46;100223.72;;;17.49;47.56
55990;BME280;41875;55.806;38.082;2023-05-19T09:27:21;100214.44;;;16.62;51.83
55990;BME280;41875;55.806;38.082;2023-05-19T09:29:50;100230.94;;;16.27;50.37
55990;BME280;41875;55.806;38.082;2023-05-19T09:32:25;100214.69;;;16.14;50.60
55990;BME280;41875;55.806;38.082;2023-05-19T09:35:01;100223.53;;;16.91;50.36
55990;BME280;41875;55.806;38.082;2023-05-19T09:37:30;100208.16;;;17.08;47.29
55990;BME280;41875;55.806;38.082;2023-05-19T09:39:59;100207.75;;;17.78;50.89
55990;BME280;41875;55.806;38.082;2023-05-19T09:42:36;100208.84;;;17.98;44.51
55990;BME280;41875;55.806;38.082;2023-05-19T09:45:06;100224.91;;;18.42;43.81
55990;BME280;41875;55.806;38.082;2023-05-19T09:47:36;100211.94;;;17.80;44.83
55990;BME280;41875;55.806;38.082;2023-05-19T09:50:15;100209.38;;;17.20;46.18
55990;BME280;41875;55.806;38.082;2023-05-19T09:52:44;100205.75;;;17.13;46.01
55990;BME280;41875;55.806;38.082;2023-05-19T09:55:15;100206.53;;;17.59;45.55
55990;BME280;41875;55.806;38.082;2023-05-19T09:57:54;100208.59;;;17.42;43.50
55990;BME280;41875;55.806;38.082;2023-05-19T10:00:24;100191.06;;;17.76;42.66
55990;BME280;41875;55.806;38.082;2023-05-19T10:02:54;100199.72;;;17.78;41.84
55990;BME280;41875;55.806;38.082;2023-05-19T10:05:23;100213.53;;;17.96;41.38
55990;BME280;41875;55.806;38.082;2023-05-19T10:07:59;100202.59;;;18.35;41.44
55990;BME280;41875;55.806;38.082;2023-05-19T10:10:41;100199.22;;;18.26;41.95
55990;BME280;41875;55.806;38.082;2023-05-19T10:13:11;100197.63;;;19.24;41.16
55990;BME280;41875;55.806;38.082;2023-05-19T10:15:43;100194.69;;;19.67;39.60
55990;BME280;41875;55.806;38.082;2023-05-19T10:18:25;100213.16;;;18.43;40.03
55990;BME280;41875;55.806;38.082;2023-05-19T10:21:18;100217.81;;;17.91;44.07
55990;BME280;41875;55.806;38.082;2023-05-19T10:23:53;100178.41;;;18.56;39.54
55990;BME280;41875;55.806;38.082;2023-05-19T10:26:36;100155.44;;;19.17;37.92
55990;BME280;41875;55.806;38.082;2023-05-19T10:29:17;100140.06;;;18.63;38.48
55990;BME280;41875;55.806;38.082;2023-05-19T10:32:21;100138.09;;;18.50;40.32
55990;BME280;41875;55.806;38.082;2023-05-19T10:35:48;100179.38;;;19.68;38.53
55990;BME280;41875;55.806;38.082;2023-05-19T10:39:03;100184.03;;;19.32;38.38
55990;BME280;41875;55.806;38.082;2023-05-19T10:41:46;100193.31;;;19.29;39.20
55990;BME280;41875;55.806;38.082;2023-05-19T10:44:50;100184.50;;;19.00;39.39
55990;BME280;41875;55.806;38.082;2023-05-19T10:48:00;100162.19;;;19.48;34.57
55990;BME280;41875;55.806;38.082;2023-05-19T10:50:35;100184.78;;;19.74;33.71
55990;BME280;41875;55.806;38.082;2023-05-19T10:53:15;100192.25;;;19.24;36.46
55990;BME280;41875;55.806;38.082;2023-05-19T10:55:53;100185.09;;;19.44;37.01
55990;BME280;41875;55.806;38.082;2023-05-19T10:58:38;100179.97;;;19.08;39.63
55990;BME280;41875;55.806;38.082;2023-05-19T11:01:12;100167.41;;;19.70;35.93
55990;BME280;41875;55.806;38.082;2023-05-19T11:03:44;100181.63;;;19.50;33.75
55990;BME280;41875;55.806;38.082;2023-05-19T11:06:20;100172.41;;;19.80;35.51
55990;BME280;41875;55.806;38.082;2023-05-19T11:08:59;100169.66;;;19.67;33.38
55990;BME280;41875;55.806;38.082;2023-05-19T11:11:44;100165.94;;;19.68;31.45
55990;BME280;41875;55.806;38.082;2023-05-19T11:14:14;100149.31;;;19.30;33.47
55990;BME280;41875;55.806;38.082;2023-05-19T11:16:56;100171.13;;;19.69;35.32
55990;BME280;41875;55.806;38.082;2023-05-19T11:19:29;100177.53;;;19.13;33.13
55990;BME280;41875;55.806;38.082;2023-05-19T11:22:11;100175.25;;;19.65;35.24
55990;BME280;41875;55.806;38.082;2023-05-19T11:24:45;100161.44;;;19.82;32.23
55990;BME280;41875;55.806;38.082;2023-05-19T11:27:28;100169.09;;;19.85;32.42
55990;BME280;41875;55.806;38.082;2023-05-19T11:30:09;100178.09;;;20.25;35.34
55990;BME280;41875;55.806;38.082;2023-05-19T11:32:49;100165.03;;;20.49;34.63
55990;BME280;41875;55.806;38.082;2023-05-19T11:35:20;100176.59;;;20.83;30.54
55990;BME280;41875;55.806;38.082;2023-05-19T11:38:12;100178.41;;;20.96;30.42
55990;BME280;41875;55.806;38.082;2023-05-19T11:40:42;100169.63;;;21.28;29.19
55990;BME280;41875;55.806;38.082;2023-05-19T11:43:12;100166.25;;;20.60;30.25
55990;BME280;41875;55.806;38.082;2023-05-19T11:45:40;100161.50;;;20.62;30.77
55990;BME280;41875;55.806;38.082;2023-05-19T11:48:13;100165.03;;;20.36;34.57
55990;BME280;41875;55.806;38.082;2023-05-19T11:50:43;100165.00;;;20.83;31.19
55990;BME280;41875;55.806;38.082;2023-05-19T11:53:13;100171.13;;;19.62;31.88
55990;BME280;41875;55.806;38.082;2023-05-19T11:55:49;100159.03;;;20.34;31.68
55990;BME280;41875;55.806;38.082;2023-05-19T11:58:24;100173.44;;;19.72;33.41
55990;BME280;41875;55.806;38.082;2023-05-19T12:00:54;100182.31;;;19.79;31.36
55990;BME280;41875;55.806;38.082;2023-05-19T12:03:24;100178.19;;;21.05;32.59
55990;BME280;41875;55.806;38.082;2023-05-19T12:05:56;100171.66;;;20.33;31.13
55990;BME280;41875;55.806;38.082;2023-05-19T12:08:38;100159.66;;;20.16;32.48
55990;BME280;41875;55.806;38.082;2023-05-19T12:11:07;100176.13;;;19.72;31.61
55990;BME280;41875;55.806;38.082;2023-05-19T12:13:38;100181.97;;;20.03;31.67
55990;BME280;41875;55.806;38.082;2023-05-19T12:16:07;100175.78;;;20.56;31.38
55990;BME280;41875;55.806;38.082;2023-05-19T12:18:37;100178.66;;;20.81;33.60
55990;BME280;41875;55.806;38.082;2023-05-19T12:21:06;100187.53;;;19.26;32.03
55990;BME280;41875;55.806;38.082;2023-05-19T12:23:35;100208.25;;;19.45;31.52
55990;BME280;41875;55.806;38.082;2023-05-19T12:26:03;100191.22;;;19.73;31.75
55990;BME280;41875;55.806;38.082;2023-05-19T12:28:32;100205.34;;;19.89;31.17
55990;BME280;41875;55.806;38.082;2023-05-19T12:31:01;100198.59;;;19.58;31.23
55990;BME280;41875;55.806;38.082;2023-05-19T12:33:33;100192.94;;;20.01;34.71
55990;BME280;41875;55.806;38.082;2023-05-19T12:36:04;100204.38;;;18.84;31.91
55990;BME280;41875;55.806;38.082;2023-05-19T12:38:33;100197.66;;;19.30;30.71
55990;BME280;41875;55.806;38.082;2023-05-19T12:41:04;100201.16;;;19.31;30.15
55990;BME280;41875;55.806;38.082;2023-05-19T12:43:36;100194.38;;;19.97;29.13
55990;BME280;41875;55.806;38.082;2023-05-19T12:46:09;100189.41;;;19.32;34.38
55990;BME280;41875;55.806;38.082;2023-05-19T12:48:40;100200.63;;;19.00;29.46
55990;BME280;41875;55.806;38.082;2023-05-19T12:51:14;100197.53;;;18.75;32.25
55990;BME280;41875;55.806;38.082;2023-05-19T12:53:44;100195.13;;;19.22;30.15
55990;BME280;41875;55.806;38.082;2023-05-19T12:56:13;100191.22;;;19.18;30.69
55990;BME280;41875;55.806;38.082;2023-05-19T12:58:43;100190.41;;;19.24;30.04
55990;BME280;41875;55.806;38.082;2023-05-19T13:01:15;100199.47;;;19.23;33.31
55990;BME280;41875;55.806;38.082;2023-05-19T13:03:45;100203.66;;;19.32;31.14
55990;BME280;41875;55.806;38.082;2023-05-19T13:06:15;100200.66;;;19.56;33.54
55990;BME280;41875;55.806;38.082;2023-05-19T13:08:45;100194.94;;;19.79;30.55
55990;BME280;41875;55.806;38.082;2023-05-19T13:11:20;100193.59;;;19.48;34.01